Ernest A. Love Field
KPRC : now visible

Airfield :











YOU CAN JOIN US ON...

 
LOGIN :

Register | Disclaimer

   EN    FR    IT 

 









Legend :    VFR   Marginal VFR   IFR   Intensive IFR   Very Intensive IFR
Visi :
Ceiling :
>= 8 km
>= 3000ft
5 to 8 km
1000 to 3000 ft
1500m to 5 km
500 to 1000 ft
800 to 1500m
200 to 500 ft
< 800m
< 200 ft
Symbols :   Thunderstorms  Fog  Heavy snow  Heavy precipitations  Wind > 20 kt







- Airport Elevation : 5045 ft
- IATA code : PRC


KPRC - Ernest A. Love Field

CURRENT METAR :
  • 221853Z 22010KT 10SM -RA BKN055 OVC070 09/01 A2973 RMK AO2 RAB21 SLP022 P0000 T00940011

EXPIRED METARs :
  • 221753Z 21015KT 10SM BKN042 BKN070 11/00 A2972 RMK AO2 SLP018 T01060000 10117 20067 53008
  • 221653Z 17009KT 140V200 10SM BKN080 09/01 A2971 RMK AO2 SLP016 T00890006

TAF KPRC
Valid from the 22 at 18:00 until the 23 at 18:00 UTC


221740Z 2218/2318 20010KT P6SM BKN060
FM221900 19014G22KT 6SM -SHRA SCT018 OVC035
TEMPO 2220/2224 5SM -SHRA SCT018 OVC035
FM230300 20010KT 4SM -SHRA BR OVC030
TEMPO 2306/2310 20010KT 3SM -SHRA BR OVC015
KZAB FIR / North America



MET'MAP, your aeronautical weather chart ! - Copyright ORBIFLY December 2007 - Disclaimer

ORBIFLY MET'MAP TEAM :

Programming & Development : Alexandra Zaïnal
Concept & Development : Baudouin d'Aumeries
Co-Development & Prog : Marc-Olivier Méhu
Technical & hardware support : Manuel Goepfert

Contact : metmap@orbifly.com




SOURCES & CREDITS :

   NOAA       Earth
Advisory